createdAt,value
2022-12-18T00:01:21.098Z,68.03
2022-12-18T00:03:49.458Z,65.60
2022-12-18T00:06:18.045Z,67.43
2022-12-18T00:08:46.631Z,68.50
2022-12-18T00:11:21.283Z,70.47
2022-12-18T00:13:49.501Z,65.57
2022-12-18T00:16:19.539Z,73.25
2022-12-18T00:18:49.975Z,70.88
2022-12-18T00:21:20.222Z,63.63
2022-12-18T00:23:49.217Z,58.50
2022-12-18T00:26:21.621Z,73.70
2022-12-18T00:28:49.946Z,67.63
2022-12-18T00:31:19.431Z,69.60
2022-12-18T00:33:47.870Z,74.30
2022-12-18T00:36:19.819Z,63.17
2022-12-18T00:38:48.388Z,58.47
2022-12-18T00:41:39.524Z,77.25
2022-12-18T00:44:08.140Z,72.47
2022-12-18T00:46:36.123Z,74.22
2022-12-18T00:49:04.183Z,65.32
2022-12-18T00:51:32.529Z,75.85
2022-12-18T00:54:01.887Z,83.68
2022-12-18T00:56:30.989Z,58.67
2022-12-18T00:58:58.692Z,64.72
2022-12-18T01:01:27.028Z,78.68
2022-12-18T01:03:54.824Z,65.47
2022-12-18T01:06:22.597Z,76.93
2022-12-18T01:08:50.538Z,72.95
2022-12-18T01:11:20.759Z,68.50
2022-12-18T01:13:50.058Z,74.00
2022-12-18T01:16:19.411Z,70.20
2022-12-18T01:18:47.354Z,61.80
2022-12-18T01:21:17.356Z,67.32
2022-12-18T01:23:45.083Z,72.78
2022-12-18T01:26:15.040Z,76.68
2022-12-18T01:28:43.372Z,71.13
2022-12-18T01:31:14.173Z,72.50
2022-12-18T01:33:42.468Z,69.88
2022-12-18T01:36:11.011Z,73.65
2022-12-18T01:38:38.742Z,60.90
2022-12-18T01:41:06.463Z,65.07
2022-12-18T01:43:49.035Z,72.07
2022-12-18T01:46:19.709Z,71.38
2022-12-18T01:48:50.298Z,71.47
2022-12-18T01:51:18.163Z,72.90
2022-12-18T01:53:47.129Z,69.72
2022-12-18T01:56:16.623Z,66.85
2022-12-18T01:58:53.032Z,73.63
2022-12-18T02:01:23.722Z,74.85
2022-12-18T02:03:52.243Z,76.55
2022-12-18T02:06:25.221Z,63.92
2022-12-18T02:11:40.640Z,63.80
2022-12-18T02:14:20.064Z,59.45
2022-12-18T02:16:54.921Z,76.07
2022-12-18T02:20:00.605Z,59.17
2022-12-18T02:22:34.604Z,62.50
2022-12-18T02:25:14.158Z,65.63
2022-12-18T02:27:45.617Z,92.47
2022-12-18T02:30:14.272Z,66.47
2022-12-18T02:32:46.411Z,69.63
2022-12-18T02:35:17.597Z,69.90
2022-12-18T02:37:47.982Z,60.22
2022-12-18T02:40:18.607Z,64.05
2022-12-18T02:42:47.757Z,60.25
2022-12-18T02:45:15.680Z,59.88
2022-12-18T02:47:48.032Z,64.40
2022-12-18T02:50:20.915Z,65.13
2022-12-18T02:52:58.547Z,60.55
2022-12-18T02:55:34.870Z,61.58
2022-12-18T02:58:07.793Z,57.55
2022-12-18T03:03:10.697Z,64.95
2022-12-18T03:05:43.426Z,68.13
2022-12-18T03:08:16.697Z,66.93
2022-12-18T03:10:51.966Z,70.05
2022-12-18T03:13:24.910Z,65.22
2022-12-18T03:18:27.033Z,62.78
2022-12-18T03:21:00.864Z,68.47
2022-12-18T03:23:34.387Z,61.13
2022-12-18T03:26:08.994Z,61.63
2022-12-18T03:28:41.645Z,58.25
2022-12-18T03:31:12.169Z,75.18
2022-12-18T03:33:44.369Z,69.28
2022-12-18T03:36:12.256Z,67.38
2022-12-18T03:38:40.288Z,56.05
2022-12-18T03:41:17.705Z,61.08
2022-12-18T03:43:53.110Z,61.67
2022-12-18T03:46:30.118Z,55.88
2022-12-18T03:49:03.298Z,68.72
2022-12-18T03:51:39.583Z,64.07
2022-12-18T03:54:10.149Z,63.80
2022-12-18T03:56:41.503Z,64.38
2022-12-18T03:59:13.618Z,65.50
2022-12-18T04:01:45.195Z,68.78
2022-12-18T04:04:14.698Z,64.78
2022-12-18T04:06:43.971Z,62.17
2022-12-18T04:09:12.129Z,66.25
2022-12-18T04:11:39.849Z,60.38
2022-12-18T04:14:07.764Z,59.10
2022-12-18T04:16:37.322Z,64.40
2022-12-18T04:19:06.960Z,68.95
2022-12-18T04:21:35.164Z,69.22
2022-12-18T04:24:02.905Z,75.32
2022-12-18T04:26:30.576Z,64.90
2022-12-18T04:28:58.306Z,72.50
2022-12-18T04:31:26.202Z,64.05
2022-12-18T04:33:55.461Z,71.88
2022-12-18T04:36:23.263Z,63.88
2022-12-18T04:38:51.067Z,67.05
2022-12-18T04:41:18.951Z,59.25
2022-12-18T04:43:46.684Z,61.85
2022-12-18T04:46:14.635Z,60.13
2022-12-18T04:48:42.600Z,48.78
2022-12-18T04:51:11.734Z,63.70
2022-12-18T04:53:39.782Z,59.22
2022-12-18T04:56:08.822Z,53.40
2022-12-18T04:58:37.076Z,50.85
2022-12-18T05:01:05.361Z,59.50
2022-12-18T05:03:33.560Z,58.40
2022-12-18T05:06:01.856Z,68.50
2022-12-18T05:08:31.028Z,51.25
2022-12-18T05:11:02.057Z,59.13
2022-12-18T05:13:29.857Z,49.60
2022-12-18T05:15:57.955Z,64.22
2022-12-18T05:18:26.386Z,65.55
2022-12-18T05:20:55.052Z,54.72
2022-12-18T05:23:24.090Z,64.15
2022-12-18T05:25:55.189Z,56.45
2022-12-18T05:28:23.854Z,52.47
2022-12-18T05:30:51.930Z,62.10
2022-12-18T05:33:19.827Z,59.78
2022-12-18T05:35:52.835Z,55.15
2022-12-18T05:40:49.405Z,65.40
2022-12-18T05:43:21.362Z,63.55
2022-12-18T05:45:49.901Z,59.35
2022-12-18T05:48:18.304Z,56.55
2022-12-18T05:50:47.798Z,59.75
2022-12-18T05:53:17.273Z,65.40
2022-12-18T05:55:45.924Z,61.45
2022-12-18T05:58:15.316Z,55.65
2022-12-18T06:00:46.408Z,70.18
2022-12-18T06:03:15.602Z,59.42
2022-12-18T06:05:45.451Z,53.20
2022-12-18T06:08:14.002Z,35.65
2022-12-18T06:10:41.912Z,54.30
2022-12-18T06:13:10.037Z,60.17
2022-12-18T06:15:38.806Z,48.35
2022-12-18T06:18:07.865Z,48.90
2022-12-18T06:20:37.510Z,41.55
2022-12-18T06:23:05.347Z,53.17
2022-12-18T06:25:33.242Z,56.80
2022-12-18T06:28:00.918Z,51.47
2022-12-18T06:30:28.602Z,55.47
2022-12-18T06:32:57.091Z,57.17
2022-12-18T06:35:26.135Z,56.38
2022-12-18T06:37:53.796Z,57.83
2022-12-18T06:40:21.681Z,61.47
2022-12-18T06:42:49.305Z,56.80
2022-12-18T06:45:18.384Z,50.10
2022-12-18T06:47:46.027Z,63.15
2022-12-18T06:50:14.859Z,56.45
2022-12-18T06:52:44.951Z,53.13
2022-12-18T06:55:13.222Z,59.55
2022-12-18T06:57:40.877Z,66.07
2022-12-18T07:00:09.670Z,59.17
2022-12-18T07:02:37.729Z,61.47
2022-12-18T07:05:10.509Z,61.28
2022-12-18T07:07:38.770Z,53.20
2022-12-18T07:10:08.484Z,53.80
2022-12-18T07:12:36.118Z,54.58
2022-12-18T07:15:04.567Z,49.75
2022-12-18T07:17:32.182Z,54.08
2022-12-18T07:20:00.076Z,59.83
2022-12-18T07:22:27.949Z,60.25
2022-12-18T07:24:56.289Z,58.67
2022-12-18T07:27:25.420Z,57.78
2022-12-18T07:29:53.073Z,58.42
2022-12-18T07:32:20.800Z,56.90
2022-12-18T07:34:57.650Z,54.92
2022-12-18T07:37:28.136Z,58.08
2022-12-18T07:40:06.301Z,43.55
2022-12-18T07:42:36.229Z,47.90
2022-12-18T07:45:04.843Z,50.50
2022-12-18T07:47:32.540Z,58.00
2022-12-18T07:50:00.262Z,55.67
2022-12-18T07:52:29.954Z,50.00
2022-12-18T07:54:57.642Z,52.35
2022-12-18T07:57:49.546Z,49.25
2022-12-18T08:00:18.206Z,54.22
2022-12-18T08:02:46.088Z,50.35
2022-12-18T08:05:14.247Z,44.72
2022-12-18T08:07:42.001Z,47.30
2022-12-18T08:10:31.410Z,50.22
2022-12-18T08:13:04.718Z,50.97
2022-12-18T08:15:34.145Z,44.92
2022-12-18T08:18:01.895Z,47.75
2022-12-18T08:20:29.588Z,54.65
2022-12-18T08:22:58.946Z,56.05
2022-12-18T08:25:26.698Z,45.60
2022-12-18T08:27:54.750Z,60.13
2022-12-18T08:30:22.807Z,48.17
2022-12-18T08:32:55.018Z,49.92
2022-12-18T08:35:22.812Z,55.58
2022-12-18T08:37:50.521Z,56.78
2022-12-18T08:40:18.400Z,57.10
2022-12-18T08:43:03.419Z,60.58
2022-12-18T08:45:31.311Z,55.30
2022-12-18T08:48:01.699Z,55.40
2022-12-18T08:50:29.825Z,61.28
2022-12-18T08:52:57.485Z,64.65
2022-12-18T08:55:25.886Z,56.30
2022-12-18T08:57:53.513Z,68.25
2022-12-18T09:00:21.326Z,62.00
2022-12-18T09:02:52.421Z,52.50
2022-12-18T09:05:24.002Z,58.78
2022-12-18T09:07:51.722Z,57.55
2022-12-18T09:10:19.393Z,57.58
2022-12-18T09:12:50.415Z,49.85
2022-12-18T09:15:21.541Z,54.30
2022-12-18T09:17:53.876Z,60.67
2022-12-18T09:20:29.289Z,53.57
2022-12-18T09:22:57.000Z,52.78
2022-12-18T09:25:24.704Z,60.63
2022-12-18T09:27:53.015Z,55.63
2022-12-18T09:30:23.603Z,59.15
2022-12-18T09:32:54.031Z,77.68
2022-12-18T09:35:23.238Z,64.97
2022-12-18T09:37:53.059Z,66.38
2022-12-18T09:40:24.673Z,59.65
2022-12-18T09:42:55.981Z,52.15
2022-12-18T09:45:28.481Z,51.72
2022-12-18T09:47:59.598Z,66.63
2022-12-18T09:50:36.995Z,60.80
2022-12-18T09:53:15.215Z,60.50
2022-12-18T09:55:49.599Z,61.72
2022-12-18T09:58:23.972Z,60.15
2022-12-18T10:00:56.706Z,65.68
2022-12-18T10:03:24.625Z,56.03
2022-12-18T10:06:03.940Z,61.40
2022-12-18T10:08:44.385Z,67.65
2022-12-18T10:11:33.442Z,76.90
2022-12-18T10:14:08.532Z,63.85
2022-12-18T10:16:43.080Z,45.78
2022-12-18T10:19:22.348Z,62.60
2022-12-18T10:22:00.488Z,72.22
2022-12-18T10:24:34.889Z,64.03
2022-12-18T10:27:15.762Z,63.85
2022-12-18T10:29:44.578Z,54.15
2022-12-18T10:32:17.066Z,67.47
2022-12-18T10:34:48.045Z,84.28
2022-12-18T10:37:20.391Z,70.38
2022-12-18T10:39:48.990Z,63.53
2022-12-18T10:42:20.845Z,64.68
2022-12-18T10:45:02.629Z,71.57
2022-12-18T10:47:30.698Z,68.50
2022-12-18T10:49:58.866Z,71.18
2022-12-18T10:52:29.478Z,62.95
2022-12-18T10:55:00.148Z,63.88
2022-12-18T10:57:34.250Z,72.88
2022-12-18T11:00:22.819Z,67.43
2022-12-18T11:02:50.717Z,54.20
2022-12-18T11:05:30.968Z,57.00
2022-12-18T11:08:00.672Z,69.90
2022-12-18T11:10:32.584Z,60.85
2022-12-18T11:13:13.480Z,61.45
2022-12-18T11:15:43.235Z,50.05
2022-12-18T11:18:19.972Z,63.28
2022-12-18T11:20:58.330Z,67.70
2022-12-18T11:23:28.769Z,59.85
2022-12-18T11:25:59.272Z,64.72
2022-12-18T11:28:30.364Z,55.20
2022-12-18T11:31:23.347Z,58.92
2022-12-18T11:34:27.572Z,44.70
2022-12-18T11:36:47.899Z,62.03
2022-12-18T11:39:20.178Z,62.55
2022-12-18T11:42:13.779Z,54.65
2022-12-18T11:44:48.845Z,57.20
2022-12-18T11:47:22.348Z,60.50
2022-12-18T11:49:52.039Z,55.45
2022-12-18T11:52:23.312Z,56.10
2022-12-18T11:54:54.957Z,57.45
2022-12-18T11:57:35.192Z,51.22
2022-12-18T12:00:10.098Z,54.67
2022-12-18T12:03:09.072Z,48.85
2022-12-18T12:05:46.828Z,62.05
2022-12-18T12:08:21.246Z,88.10
2022-12-18T12:10:59.750Z,53.72
2022-12-18T12:13:40.872Z,53.40
2022-12-18T12:16:19.018Z,49.67
2022-12-18T12:18:57.935Z,55.88
2022-12-18T12:21:35.260Z,60.30
2022-12-18T12:24:14.793Z,63.45
2022-12-18T12:26:50.385Z,59.70
2022-12-18T12:29:31.837Z,62.05
2022-12-18T12:32:18.709Z,65.22
2022-12-18T12:35:00.982Z,57.10
2022-12-18T12:37:39.814Z,61.35
2022-12-18T12:40:49.087Z,54.72
2022-12-18T12:43:23.572Z,69.25
2022-12-18T12:45:56.699Z,124.10
2022-12-18T12:48:44.812Z,60.75
2022-12-18T12:51:18.246Z,56.20
2022-12-18T12:53:46.884Z,59.88
2022-12-18T12:56:17.035Z,65.88
2022-12-18T12:58:57.043Z,91.40
2022-12-18T13:01:34.630Z,64.30
2022-12-18T13:04:10.789Z,69.25
2022-12-18T13:06:46.723Z,53.10
2022-12-18T13:09:15.126Z,57.25
2022-12-18T13:12:04.172Z,62.00
2022-12-18T13:14:35.851Z,56.97
2022-12-18T13:17:31.900Z,60.47
2022-12-18T13:20:17.340Z,62.78
2022-12-18T13:22:47.193Z,57.13
2022-12-18T13:25:36.066Z,60.38
2022-12-18T13:28:26.869Z,57.47
2022-12-18T13:31:00.746Z,62.83
2022-12-18T13:36:37.264Z,62.08
2022-12-18T13:39:36.694Z,70.93
2022-12-18T13:43:01.603Z,57.13
2022-12-18T13:45:43.268Z,69.03
2022-12-18T13:48:23.073Z,57.88
2022-12-18T13:50:55.514Z,56.35
2022-12-18T13:53:26.432Z,64.43
2022-12-18T13:55:55.443Z,59.67
2022-12-18T13:58:23.215Z,64.35
2022-12-18T14:00:51.029Z,66.70
2022-12-18T14:03:25.215Z,76.18
2022-12-18T14:06:00.777Z,62.40
2022-12-18T14:08:35.223Z,55.38
2022-12-18T14:11:04.156Z,58.83
2022-12-18T14:13:36.024Z,56.35
2022-12-18T14:16:09.420Z,64.60
2022-12-18T14:18:47.240Z,58.30
2022-12-18T14:21:22.312Z,58.88
2022-12-18T14:23:50.233Z,58.78
2022-12-18T14:26:31.529Z,63.65
2022-12-18T14:29:02.036Z,61.53
2022-12-18T14:31:31.613Z,61.47
2022-12-18T14:34:00.626Z,63.03
2022-12-18T14:36:29.798Z,60.30
2022-12-18T14:38:59.289Z,57.65
2022-12-18T14:41:28.845Z,70.57
2022-12-18T14:43:56.975Z,60.42
2022-12-18T14:46:33.704Z,65.43
2022-12-18T14:49:05.189Z,58.33
2022-12-18T14:51:35.180Z,71.63
2022-12-18T14:54:04.765Z,65.45
2022-12-18T14:56:34.499Z,63.78
2022-12-18T14:59:04.315Z,72.72
2022-12-18T15:01:34.781Z,57.63
2022-12-18T15:04:05.493Z,67.20
2022-12-18T15:06:37.202Z,62.22
2022-12-18T15:09:08.377Z,123.68
2022-12-18T15:11:48.196Z,70.30
2022-12-18T15:14:32.158Z,69.18
2022-12-18T15:17:01.192Z,62.83
2022-12-18T15:19:37.748Z,103.00
2022-12-18T15:22:06.737Z,80.13
2022-12-18T15:24:49.836Z,63.35
2022-12-18T15:27:30.079Z,67.40
2022-12-18T15:30:19.008Z,68.57
2022-12-18T15:32:47.596Z,79.45
2022-12-18T15:35:21.646Z,81.43
2022-12-18T15:37:49.738Z,68.53
2022-12-18T15:40:18.446Z,70.82
2022-12-18T15:43:06.202Z,69.10
2022-12-18T15:45:34.091Z,66.80
2022-12-18T15:48:02.001Z,70.10
2022-12-18T15:50:33.322Z,93.28
2022-12-18T15:53:01.439Z,74.00
2022-12-18T15:55:47.396Z,145.48
2022-12-18T15:58:16.297Z,81.00
2022-12-18T16:00:44.243Z,79.65
2022-12-18T16:03:14.925Z,101.60
2022-12-18T16:05:54.344Z,84.90
2022-12-18T16:08:22.287Z,68.25
2022-12-18T16:10:50.230Z,87.68
2022-12-18T16:13:21.389Z,65.10
2022-12-18T16:15:52.471Z,77.47
2022-12-18T16:18:20.278Z,72.25
2022-12-18T16:20:49.434Z,67.63
2022-12-18T16:23:17.147Z,85.68
2022-12-18T16:25:44.971Z,72.95
2022-12-18T16:28:12.800Z,76.78
2022-12-18T16:30:41.297Z,75.45
2022-12-18T16:33:12.958Z,75.03
2022-12-18T16:35:40.552Z,86.97
2022-12-18T16:38:09.584Z,76.68
2022-12-18T16:41:01.746Z,71.00
2022-12-18T16:43:29.429Z,76.75
2022-12-18T16:45:58.276Z,68.20
2022-12-18T16:48:26.747Z,76.97
2022-12-18T16:51:02.820Z,82.13
2022-12-18T16:53:35.026Z,81.50
2022-12-18T16:56:03.490Z,81.17
2022-12-18T16:58:32.729Z,74.22
2022-12-18T17:01:00.486Z,78.68
2022-12-18T17:03:31.815Z,72.75
2022-12-18T17:06:03.962Z,75.68
2022-12-18T17:08:33.306Z,73.53
2022-12-18T17:11:08.227Z,73.80
2022-12-18T17:13:36.083Z,69.03
2022-12-18T17:16:06.467Z,65.90
2022-12-18T17:18:35.471Z,68.10
2022-12-18T17:21:04.769Z,80.82
2022-12-18T17:23:43.182Z,65.68
2022-12-18T17:26:14.464Z,74.38
2022-12-18T17:28:45.481Z,73.63
2022-12-18T17:31:15.120Z,82.60
2022-12-18T17:33:43.099Z,69.75
2022-12-18T17:36:16.006Z,79.03
2022-12-18T17:38:52.222Z,82.55
2022-12-18T17:41:20.017Z,78.25
2022-12-18T17:43:54.395Z,67.45
2022-12-18T17:46:22.674Z,87.82
2022-12-18T17:48:50.895Z,77.88
2022-12-18T17:51:21.961Z,86.05
2022-12-18T17:53:53.788Z,89.13
2022-12-18T17:56:25.850Z,76.10
2022-12-18T17:58:55.699Z,84.30
2022-12-18T18:01:25.620Z,72.72
2022-12-18T18:03:56.010Z,94.13
2022-12-18T18:06:24.979Z,84.00
2022-12-18T18:08:54.962Z,85.38
2022-12-18T18:11:42.711Z,76.40
2022-12-18T18:14:15.107Z,86.50
2022-12-18T18:16:47.687Z,81.88
2022-12-18T18:19:17.241Z,72.88
2022-12-18T18:21:52.635Z,70.38
2022-12-18T18:24:27.632Z,85.28
2022-12-18T18:26:55.636Z,68.78
2022-12-18T18:29:34.308Z,74.55
2022-12-18T18:32:02.616Z,72.55
2022-12-18T18:34:33.358Z,81.63
2022-12-18T18:37:01.127Z,95.80
2022-12-18T18:39:31.777Z,80.47
2022-12-18T18:42:01.347Z,90.32
2022-12-18T18:44:32.436Z,75.25
2022-12-18T18:47:00.867Z,83.50
2022-12-18T18:49:33.301Z,76.95
2022-12-18T18:52:02.692Z,84.30
2022-12-18T18:54:31.974Z,72.90
2022-12-18T18:59:51.908Z,82.40
2022-12-18T19:02:19.672Z,97.13
2022-12-18T19:04:47.726Z,95.82
2022-12-18T19:07:29.935Z,84.00
2022-12-18T19:12:48.875Z,78.23
2022-12-18T19:15:16.534Z,86.07
2022-12-18T19:17:44.815Z,88.80
2022-12-18T19:20:15.149Z,75.95
2022-12-18T19:22:43.226Z,77.68
2022-12-18T19:25:13.938Z,75.57
2022-12-18T19:27:41.610Z,87.32
2022-12-18T19:30:11.012Z,98.38
2022-12-18T19:32:42.271Z,79.05
2022-12-18T19:35:11.189Z,79.35
2022-12-18T19:37:39.950Z,76.45
2022-12-18T19:40:12.579Z,90.97
2022-12-18T19:42:41.846Z,90.53
2022-12-18T19:45:10.255Z,90.28
2022-12-18T19:47:38.033Z,83.95
2022-12-18T19:50:06.605Z,82.38
2022-12-18T19:52:34.391Z,80.85
2022-12-18T19:55:02.178Z,90.70
2022-12-18T19:57:30.570Z,86.90
2022-12-18T19:59:59.706Z,83.82
2022-12-18T20:02:27.726Z,89.85
2022-12-18T20:04:56.570Z,80.65
2022-12-18T20:07:24.490Z,81.20
2022-12-18T20:09:59.551Z,81.70
2022-12-18T20:12:31.827Z,89.50
2022-12-18T20:15:01.148Z,95.18
2022-12-18T20:17:28.768Z,86.68
2022-12-18T20:19:57.403Z,85.50
2022-12-18T20:22:25.526Z,86.95
2022-12-18T20:24:53.378Z,86.88
2022-12-18T20:27:24.356Z,87.57
2022-12-18T20:29:54.593Z,80.80
2022-12-18T20:32:26.482Z,84.97
2022-12-18T20:34:56.452Z,80.20
2022-12-18T20:37:24.294Z,86.38
2022-12-18T20:39:53.180Z,80.38
2022-12-18T20:42:21.947Z,86.43
2022-12-18T20:44:51.721Z,101.25
2022-12-18T20:47:19.707Z,86.55
2022-12-18T20:49:51.874Z,79.35
2022-12-18T20:52:19.522Z,84.47
2022-12-18T20:54:49.248Z,76.75
2022-12-18T20:57:16.887Z,82.30
2022-12-18T20:59:48.136Z,76.22
2022-12-18T21:02:16.759Z,81.35
2022-12-18T21:04:46.256Z,88.78
2022-12-18T21:07:15.235Z,86.30
2022-12-18T21:09:42.891Z,84.30
2022-12-18T21:12:33.417Z,83.30
2022-12-18T21:15:03.560Z,78.20
2022-12-18T21:17:32.705Z,82.00
2022-12-18T21:20:08.591Z,78.90
2022-12-18T21:22:37.986Z,128.80
2022-12-18T21:25:06.649Z,96.68
2022-12-18T21:27:34.616Z,82.00
2022-12-18T21:30:02.407Z,75.15
2022-12-18T21:32:33.387Z,86.97
2022-12-18T21:35:01.335Z,90.80
2022-12-18T21:37:29.007Z,80.82
2022-12-18T21:39:57.994Z,91.80
2022-12-18T21:42:43.484Z,80.30
2022-12-18T21:45:12.081Z,84.10
2022-12-18T21:47:39.752Z,77.38
2022-12-18T21:50:11.255Z,77.55
2022-12-18T21:52:39.708Z,87.28
2022-12-18T21:55:11.865Z,84.72
2022-12-18T21:57:39.995Z,77.38
2022-12-18T22:00:18.938Z,81.75
2022-12-18T22:02:52.485Z,84.63
2022-12-18T22:05:36.042Z,83.95
2022-12-18T22:08:03.724Z,87.45
2022-12-18T22:10:34.834Z,85.65
2022-12-18T22:13:04.287Z,82.35
2022-12-18T22:15:32.127Z,80.40
2022-12-18T22:18:00.542Z,79.32
2022-12-18T22:20:29.694Z,73.20
2022-12-18T22:22:58.007Z,103.60
2022-12-18T22:25:25.966Z,78.75
2022-12-18T22:28:12.443Z,94.07
2022-12-18T22:30:40.483Z,87.68
2022-12-18T22:33:10.501Z,88.32
2022-12-18T22:35:38.256Z,82.22
2022-12-18T22:38:09.741Z,76.47
2022-12-18T22:40:37.463Z,80.00
2022-12-18T22:43:06.464Z,76.05
2022-12-18T22:45:34.162Z,73.60
2022-12-18T22:48:06.794Z,69.03
2022-12-18T22:50:34.539Z,72.13
2022-12-18T22:53:02.234Z,69.50
2022-12-18T22:55:29.910Z,74.53
2022-12-18T22:57:57.572Z,79.75
2022-12-18T23:00:27.051Z,72.13
2022-12-18T23:03:00.331Z,73.07
2022-12-18T23:05:30.595Z,81.75
2022-12-18T23:07:58.744Z,70.22
2022-12-18T23:10:28.375Z,73.53
2022-12-18T23:12:56.092Z,77.13
2022-12-18T23:15:27.714Z,78.47
2022-12-18T23:17:58.855Z,79.68
2022-12-18T23:20:27.928Z,79.60
2022-12-18T23:22:55.690Z,74.85
2022-12-18T23:25:23.331Z,77.20
2022-12-18T23:27:51.022Z,68.75
2022-12-18T23:30:18.873Z,76.40
2022-12-18T23:32:46.554Z,82.03
2022-12-18T23:35:16.117Z,77.30
2022-12-18T23:38:00.077Z,82.20
2022-12-18T23:40:29.394Z,77.05
2022-12-18T23:42:59.985Z,77.10
2022-12-18T23:45:27.880Z,70.53
2022-12-18T23:47:55.539Z,70.13
2022-12-18T23:50:29.516Z,79.55
2022-12-18T23:53:04.886Z,71.22
2022-12-18T23:55:38.490Z,75.57
2022-12-18T23:58:06.253Z,68.57
